sensor_id;sensor_type;location;lat;lon;timestamp;pressure;altitude;pressure_sealevel;temperature;humidity
27358;BME280;14831;50.474;7.616;2023-04-01T00:00:35;96230;;;8.3;86.9
27358;BME280;14831;50.474;7.616;2023-04-01T00:05:35;96220;;;8.3;87.0
27358;BME280;14831;50.474;7.616;2023-04-01T00:10:35;96210;;;8.3;86.5
27358;BME280;14831;50.474;7.616;2023-04-01T00:15:35;96230;;;8.3;86.9
27358;BME280;14831;50.474;7.616;2023-04-01T00:20:35;96220;;;8.2;87.2
27358;BME280;14831;50.474;7.616;2023-04-01T00:25:35;96220;;;8.2;87.3
27358;BME280;14831;50.474;7.616;2023-04-01T00:30:35;96220;;;8.2;87.4
27358;BME280;14831;50.474;7.616;2023-04-01T00:35:35;96230;;;8.2;87.6
27358;BME280;14831;50.474;7.616;2023-04-01T00:40:36;96210;;;8.1;88.0
27358;BME280;14831;50.474;7.616;2023-04-01T00:45:36;96220;;;8.1;87.8
27358;BME280;14831;50.474;7.616;2023-04-01T00:50:35;96220;;;8.1;87.6
27358;BME280;14831;50.474;7.616;2023-04-01T00:55:35;96220;;;8.1;87.3
27358;BME280;14831;50.474;7.616;2023-04-01T01:00:35;96230;;;8.1;87.3
27358;BME280;14831;50.474;7.616;2023-04-01T01:05:38;96230;;;8.1;86.6
27358;BME280;14831;50.474;7.616;2023-04-01T01:10:35;96230;;;8.1;86.9
27358;BME280;14831;50.474;7.616;2023-04-01T01:15:36;96220;;;8.1;86.8
27358;BME280;14831;50.474;7.616;2023-04-01T01:20:48;96210;;;8.1;86.8
27358;BME280;14831;50.474;7.616;2023-04-01T01:25:38;96210;;;8.1;86.7
27358;BME280;14831;50.474;7.616;2023-04-01T01:30:36;96200;;;8.1;86.7
27358;BME280;14831;50.474;7.616;2023-04-01T01:35:35;96220;;;8.1;87.2
27358;BME280;14831;50.474;7.616;2023-04-01T01:45:35;96210;;;8.1;87.2
27358;BME280;14831;50.474;7.616;2023-04-01T01:50:35;96200;;;8.0;87.4
27358;BME280;14831;50.474;7.616;2023-04-01T01:55:35;96210;;;8.0;87.7
27358;BME280;14831;50.474;7.616;2023-04-01T02:00:35;96200;;;8.0;87.9
27358;BME280;14831;50.474;7.616;2023-04-01T02:05:35;96210;;;7.9;87.9
27358;BME280;14831;50.474;7.616;2023-04-01T02:10:35;96200;;;7.9;88.0
27358;BME280;14831;50.474;7.616;2023-04-01T02:15:36;96200;;;7.9;87.9
27358;BME280;14831;50.474;7.616;2023-04-01T02:20:35;96200;;;7.9;87.7
27358;BME280;14831;50.474;7.616;2023-04-01T02:25:35;96190;;;7.9;87.6
27358;BME280;14831;50.474;7.616;2023-04-01T02:30:35;96200;;;7.9;87.6
27358;BME280;14831;50.474;7.616;2023-04-01T02:35:35;96200;;;7.9;87.6
27358;BME280;14831;50.474;7.616;2023-04-01T02:40:45;96190;;;7.9;87.7
27358;BME280;14831;50.474;7.616;2023-04-01T02:45:35;96200;;;7.8;87.7
27358;BME280;14831;50.474;7.616;2023-04-01T02:50:35;96180;;;7.8;87.9
27358;BME280;14831;50.474;7.616;2023-04-01T02:55:35;96180;;;7.8;87.9
27358;BME280;14831;50.474;7.616;2023-04-01T03:00:35;96180;;;7.8;88.1
27358;BME280;14831;50.474;7.616;2023-04-01T03:05:35;96180;;;7.8;87.8
27358;BME280;14831;50.474;7.616;2023-04-01T03:10:35;96170;;;7.8;87.4
27358;BME280;14831;50.474;7.616;2023-04-01T03:15:35;96160;;;7.8;87.7
27358;BME280;14831;50.474;7.616;2023-04-01T03:20:35;96170;;;7.8;87.8
27358;BME280;14831;50.474;7.616;2023-04-01T03:25:35;96180;;;7.7;87.9
27358;BME280;14831;50.474;7.616;2023-04-01T03:30:35;96170;;;7.7;87.9
27358;BME280;14831;50.474;7.616;2023-04-01T03:35:35;96170;;;7.7;87.8
27358;BME280;14831;50.474;7.616;2023-04-01T03:40:35;96170;;;7.7;88.0
27358;BME280;14831;50.474;7.616;2023-04-01T03:45:35;96170;;;7.7;87.4
27358;BME280;14831;50.474;7.616;2023-04-01T03:50:35;96170;;;7.7;87.6
27358;BME280;14831;50.474;7.616;2023-04-01T03:55:35;96170;;;7.7;87.4
27358;BME280;14831;50.474;7.616;2023-04-01T04:00:35;96170;;;7.7;87.4
27358;BME280;14831;50.474;7.616;2023-04-01T04:05:35;96170;;;7.7;87.0
27358;BME280;14831;50.474;7.616;2023-04-01T04:10:36;96170;;;7.7;87.3
27358;BME280;14831;50.474;7.616;2023-04-01T04:15:35;96170;;;7.7;87.4
27358;BME280;14831;50.474;7.616;2023-04-01T04:20:35;96180;;;7.7;86.9
27358;BME280;14831;50.474;7.616;2023-04-01T04:25:35;96180;;;7.7;87.2
27358;BME280;14831;50.474;7.616;2023-04-01T04:30:35;96170;;;7.7;87.3
27358;BME280;14831;50.474;7.616;2023-04-01T04:35:35;96180;;;7.7;87.3
27358;BME280;14831;50.474;7.616;2023-04-01T04:40:35;96180;;;7.7;87.3
27358;BME280;14831;50.474;7.616;2023-04-01T04:45:35;96180;;;7.7;87.2
27358;BME280;14831;50.474;7.616;2023-04-01T04:50:35;96180;;;7.7;87.1
27358;BME280;14831;50.474;7.616;2023-04-01T04:55:35;96190;;;7.7;86.9
27358;BME280;14831;50.474;7.616;2023-04-01T05:00:35;96200;;;7.7;86.5
27358;BME280;14831;50.474;7.616;2023-04-01T05:05:35;96190;;;7.7;86.6
27358;BME280;14831;50.474;7.616;2023-04-01T05:10:35;96200;;;7.7;86.6
27358;BME280;14831;50.474;7.616;2023-04-01T05:15:35;96200;;;7.7;86.5
27358;BME280;14831;50.474;7.616;2023-04-01T05:20:35;96200;;;7.7;87.1
27358;BME280;14831;50.474;7.616;2023-04-01T05:25:37;96190;;;7.7;87.2
27358;BME280;14831;50.474;7.616;2023-04-01T05:30:35;96190;;;7.7;87.4
27358;BME280;14831;50.474;7.616;2023-04-01T05:35:35;96200;;;7.6;87.8
27358;BME280;14831;50.474;7.616;2023-04-01T05:40:36;96200;;;7.6;88.0
27358;BME280;14831;50.474;7.616;2023-04-01T05:45:35;96200;;;7.6;88.4
27358;BME280;14831;50.474;7.616;2023-04-01T05:50:35;96210;;;7.6;89.3
27358;BME280;14831;50.474;7.616;2023-04-01T05:55:35;96200;;;7.5;90.3
27358;BME280;14831;50.474;7.616;2023-04-01T06:00:35;96200;;;7.5;90.8
27358;BME280;14831;50.474;7.616;2023-04-01T06:05:38;96190;;;7.5;91.3
27358;BME280;14831;50.474;7.616;2023-04-01T06:10:37;96210;;;7.5;91.7
27358;BME280;14831;50.474;7.616;2023-04-01T06:15:36;96210;;;7.4;92.7
27358;BME280;14831;50.474;7.616;2023-04-01T06:20:37;96210;;;7.4;92.6
27358;BME280;14831;50.474;7.616;2023-04-01T06:25:38;96220;;;7.4;93.4
27358;BME280;14831;50.474;7.616;2023-04-01T06:30:38;96220;;;7.4;93.6
27358;BME280;14831;50.474;7.616;2023-04-01T06:35:36;96220;;;7.4;94.0
27358;BME280;14831;50.474;7.616;2023-04-01T06:40:39;96220;;;7.4;93.8
27358;BME280;14831;50.474;7.616;2023-04-01T06:45:37;96220;;;7.4;94.1
27358;BME280;14831;50.474;7.616;2023-04-01T06:50:36;96230;;;7.4;93.8
27358;BME280;14831;50.474;7.616;2023-04-01T06:55:36;96220;;;7.5;94.1
27358;BME280;14831;50.474;7.616;2023-04-01T07:00:36;96230;;;7.5;93.9
27358;BME280;14831;50.474;7.616;2023-04-01T07:05:35;96230;;;7.5;93.8
27358;BME280;14831;50.474;7.616;2023-04-01T07:10:37;96220;;;7.6;94.0
27358;BME280;14831;50.474;7.616;2023-04-01T07:15:36;96240;;;7.6;93.7
27358;BME280;14831;50.474;7.616;2023-04-01T07:20:36;96230;;;7.6;93.6
27358;BME280;14831;50.474;7.616;2023-04-01T07:25:36;96240;;;7.7;93.1
27358;BME280;14831;50.474;7.616;2023-04-01T07:30:43;96240;;;7.8;93.3
27358;BME280;14831;50.474;7.616;2023-04-01T07:35:36;96250;;;7.8;93.5
27358;BME280;14831;50.474;7.616;2023-04-01T07:40:37;96250;;;7.8;93.2
27358;BME280;14831;50.474;7.616;2023-04-01T07:45:36;96250;;;7.9;93.5
27358;BME280;14831;50.474;7.616;2023-04-01T07:50:36;96260;;;7.9;93.5
27358;BME280;14831;50.474;7.616;2023-04-01T07:55:36;96260;;;8.0;93.4
27358;BME280;14831;50.474;7.616;2023-04-01T08:00:36;96260;;;8.1;93.1
27358;BME280;14831;50.474;7.616;2023-04-01T08:05:39;96270;;;8.1;93.3
27358;BME280;14831;50.474;7.616;2023-04-01T08:10:36;96280;;;8.1;93.3
27358;BME280;14831;50.474;7.616;2023-04-01T08:15:36;96280;;;8.1;93.2
27358;BME280;14831;50.474;7.616;2023-04-01T08:20:37;96280;;;8.2;92.9
27358;BME280;14831;50.474;7.616;2023-04-01T08:25:35;96290;;;8.3;93.2
27358;BME280;14831;50.474;7.616;2023-04-01T08:30:36;96290;;;8.4;92.5
27358;BME280;14831;50.474;7.616;2023-04-01T08:35:37;96290;;;8.4;92.8
27358;BME280;14831;50.474;7.616;2023-04-01T08:45:55;96290;;;8.3;92.7
27358;BME280;14831;50.474;7.616;2023-04-01T08:50:36;96310;;;8.3;92.6
27358;BME280;14831;50.474;7.616;2023-04-01T08:55:37;96300;;;8.4;93.0
27358;BME280;14831;50.474;7.616;2023-04-01T09:00:36;96300;;;8.4;92.9
27358;BME280;14831;50.474;7.616;2023-04-01T09:05:36;96300;;;8.4;93.0
27358;BME280;14831;50.474;7.616;2023-04-01T09:10:39;96300;;;8.4;93.0
27358;BME280;14831;50.474;7.616;2023-04-01T09:15:37;96320;;;8.4;93.8
27358;BME280;14831;50.474;7.616;2023-04-01T09:20:39;96310;;;8.5;94.0
27358;BME280;14831;50.474;7.616;2023-04-01T09:25:38;96330;;;8.6;93.1
27358;BME280;14831;50.474;7.616;2023-04-01T09:30:41;96320;;;8.7;92.9
27358;BME280;14831;50.474;7.616;2023-04-01T09:35:38;96330;;;8.8;91.1
27358;BME280;14831;50.474;7.616;2023-04-01T09:40:37;96330;;;8.9;90.7
27358;BME280;14831;50.474;7.616;2023-04-01T09:45:44;96330;;;9.0;89.7
27358;BME280;14831;50.474;7.616;2023-04-01T09:50:36;96340;;;9.0;88.9
27358;BME280;14831;50.474;7.616;2023-04-01T09:55:46;96350;;;9.1;88.2
27358;BME280;14831;50.474;7.616;2023-04-01T10:00:39;96350;;;9.1;88.9
27358;BME280;14831;50.474;7.616;2023-04-01T10:05:41;96350;;;9.2;88.2
27358;BME280;14831;50.474;7.616;2023-04-01T10:10:41;96350;;;9.3;87.4
27358;BME280;14831;50.474;7.616;2023-04-01T10:15:41;96360;;;9.4;86.6
27358;BME280;14831;50.474;7.616;2023-04-01T10:20:39;96370;;;9.4;86.8
27358;BME280;14831;50.474;7.616;2023-04-01T10:25:49;96370;;;9.4;85.7
27358;BME280;14831;50.474;7.616;2023-04-01T10:30:39;96370;;;9.3;87.7
27358;BME280;14831;50.474;7.616;2023-04-01T10:35:42;96380;;;9.3;88.0
27358;BME280;14831;50.474;7.616;2023-04-01T10:40:38;96380;;;9.3;87.4
27358;BME280;14831;50.474;7.616;2023-04-01T10:50:40;96390;;;9.2;86.9
27358;BME280;14831;50.474;7.616;2023-04-01T10:55:37;96390;;;9.2;87.9
27358;BME280;14831;50.474;7.616;2023-04-01T11:00:45;96390;;;9.2;87.5
27358;BME280;14831;50.474;7.616;2023-04-01T11:05:49;96400;;;9.3;87.2
27358;BME280;14831;50.474;7.616;2023-04-01T11:10:45;96400;;;9.4;89.0
27358;BME280;14831;50.474;7.616;2023-04-01T11:16:43;96400;;;9.5;88.4
27358;BME280;14831;50.474;7.616;2023-04-01T11:20:40;96410;;;9.7;88.7
27358;BME280;14831;50.474;7.616;2023-04-01T11:25:38;96410;;;9.8;89.1
27358;BME280;14831;50.474;7.616;2023-04-01T11:30:40;96410;;;9.8;89.2
27358;BME280;14831;50.474;7.616;2023-04-01T11:35:42;96420;;;9.9;89.8
27358;BME280;14831;50.474;7.616;2023-04-01T11:40:36;96430;;;10.0;89.1
27358;BME280;14831;50.474;7.616;2023-04-01T11:45:36;96430;;;9.9;89.2
27358;BME280;14831;50.474;7.616;2023-04-01T11:50:38;96430;;;10.0;89.7
27358;BME280;14831;50.474;7.616;2023-04-01T11:55:38;96440;;;10.1;89.3
27358;BME280;14831;50.474;7.616;2023-04-01T12:00:38;96430;;;10.3;89.6
27358;BME280;14831;50.474;7.616;2023-04-01T12:05:38;96440;;;10.6;90.5
27358;BME280;14831;50.474;7.616;2023-04-01T12:10:37;96460;;;10.4;86.3
27358;BME280;14831;50.474;7.616;2023-04-01T12:15:38;96450;;;10.4;85.5
27358;BME280;14831;50.474;7.616;2023-04-01T12:20:38;96470;;;10.4;88.0
27358;BME280;14831;50.474;7.616;2023-04-01T12:25:38;96470;;;10.2;88.3
27358;BME280;14831;50.474;7.616;2023-04-01T12:30:37;96480;;;10.3;87.9
27358;BME280;14831;50.474;7.616;2023-04-01T12:35:37;96490;;;10.5;89.2
27358;BME280;14831;50.474;7.616;2023-04-01T12:40:41;96500;;;10.5;88.6
27358;BME280;14831;50.474;7.616;2023-04-01T12:45:35;96500;;;10.5;87.9
27358;BME280;14831;50.474;7.616;2023-04-01T12:50:42;96490;;;10.7;89.8
27358;BME280;14831;50.474;7.616;2023-04-01T12:55:36;96500;;;10.8;87.9
27358;BME280;14831;50.474;7.616;2023-04-01T13:00:40;96500;;;10.9;87.6
27358;BME280;14831;50.474;7.616;2023-04-01T13:05:38;96510;;;11.0;89.5
27358;BME280;14831;50.474;7.616;2023-04-01T13:10:38;96510;;;10.8;84.7
27358;BME280;14831;50.474;7.616;2023-04-01T13:15:36;96500;;;10.7;84.3
27358;BME280;14831;50.474;7.616;2023-04-01T13:20:39;96510;;;10.7;84.9
27358;BME280;14831;50.474;7.616;2023-04-01T13:25:36;96510;;;10.6;84.5
27358;BME280;14831;50.474;7.616;2023-04-01T13:30:37;96530;;;10.5;84.2
27358;BME280;14831;50.474;7.616;2023-04-01T13:35:37;96520;;;10.5;86.5
27358;BME280;14831;50.474;7.616;2023-04-01T13:40:37;96530;;;10.7;86.8
27358;BME280;14831;50.474;7.616;2023-04-01T13:45:38;96540;;;10.7;87.1
27358;BME280;14831;50.474;7.616;2023-04-01T13:50:44;96540;;;10.7;87.3
27358;BME280;14831;50.474;7.616;2023-04-01T13:55:37;96540;;;10.8;85.8
27358;BME280;14831;50.474;7.616;2023-04-01T14:00:38;96550;;;10.8;85.3
27358;BME280;14831;50.474;7.616;2023-04-01T14:05:38;96550;;;10.5;88.6
27358;BME280;14831;50.474;7.616;2023-04-01T14:10:36;96570;;;9.9;91.7
27358;BME280;14831;50.474;7.616;2023-04-01T14:15:48;96560;;;9.4;91.0
27358;BME280;14831;50.474;7.616;2023-04-01T14:20:36;96560;;;9.5;93.7
27358;BME280;14831;50.474;7.616;2023-04-01T14:25:40;96580;;;9.4;91.1
27358;BME280;14831;50.474;7.616;2023-04-01T14:30:37;96570;;;9.5;93.0
27358;BME280;14831;50.474;7.616;2023-04-01T14:35:37;96560;;;9.7;93.2
27358;BME280;14831;50.474;7.616;2023-04-01T14:40:40;96580;;;9.6;93.4
27358;BME280;14831;50.474;7.616;2023-04-01T14:45:45;96580;;;9.5;93.8
27358;BME280;14831;50.474;7.616;2023-04-01T14:50:40;96580;;;9.3;91.7
27358;BME280;14831;50.474;7.616;2023-04-01T14:55:36;96590;;;9.4;94.6
27358;BME280;14831;50.474;7.616;2023-04-01T15:00:47;96600;;;9.4;93.7
27358;BME280;14831;50.474;7.616;2023-04-01T15:05:38;96590;;;9.5;93.4
27358;BME280;14831;50.474;7.616;2023-04-01T15:11:44;96600;;;9.6;93.7
27358;BME280;14831;50.474;7.616;2023-04-01T15:15:36;96600;;;9.6;93.5
27358;BME280;14831;50.474;7.616;2023-04-01T15:20:40;96600;;;9.5;93.7
27358;BME280;14831;50.474;7.616;2023-04-01T15:25:41;96610;;;9.5;93.8
27358;BME280;14831;50.474;7.616;2023-04-01T15:30:36;96610;;;9.5;94.1
27358;BME280;14831;50.474;7.616;2023-04-01T15:35:38;96630;;;9.6;95.5
27358;BME280;14831;50.474;7.616;2023-04-01T15:40:37;96630;;;9.5;94.6
27358;BME280;14831;50.474;7.616;2023-04-01T15:45:37;96640;;;9.3;93.0
27358;BME280;14831;50.474;7.616;2023-04-01T15:50:41;96640;;;9.5;93.4
27358;BME280;14831;50.474;7.616;2023-04-01T15:55:37;96640;;;9.5;92.6
27358;BME280;14831;50.474;7.616;2023-04-01T16:00:40;96640;;;9.4;92.1
27358;BME280;14831;50.474;7.616;2023-04-01T16:05:37;96650;;;9.4;91.7
27358;BME280;14831;50.474;7.616;2023-04-01T16:10:44;96660;;;9.4;92.1
27358;BME280;14831;50.474;7.616;2023-04-01T16:15:37;96660;;;9.4;92.7
27358;BME280;14831;50.474;7.616;2023-04-01T16:20:41;96670;;;9.3;92.2
27358;BME280;14831;50.474;7.616;2023-04-01T16:25:36;96670;;;9.1;92.6
27358;BME280;14831;50.474;7.616;2023-04-01T16:30:35;96670;;;9.1;92.8
27358;BME280;14831;50.474;7.616;2023-04-01T16:35:37;96690;;;9.0;93.8
27358;BME280;14831;50.474;7.616;2023-04-01T16:40:37;96680;;;8.9;94.7
27358;BME280;14831;50.474;7.616;2023-04-01T16:45:35;96700;;;8.9;94.8
27358;BME280;14831;50.474;7.616;2023-04-01T16:50:39;96690;;;9.0;94.5
27358;BME280;14831;50.474;7.616;2023-04-01T16:55:35;96700;;;8.9;94.5
27358;BME280;14831;50.474;7.616;2023-04-01T17:00:37;96710;;;8.9;94.2
27358;BME280;14831;50.474;7.616;2023-04-01T17:05:38;96710;;;8.9;94.7
27358;BME280;14831;50.474;7.616;2023-04-01T17:10:37;96710;;;8.8;94.7
27358;BME280;14831;50.474;7.616;2023-04-01T17:15:36;96720;;;8.8;94.6
27358;BME280;14831;50.474;7.616;2023-04-01T17:20:38;96730;;;8.8;94.7
27358;BME280;14831;50.474;7.616;2023-04-01T17:25:41;96740;;;8.7;95.0
27358;BME280;14831;50.474;7.616;2023-04-01T17:30:35;96750;;;8.7;95.2
27358;BME280;14831;50.474;7.616;2023-04-01T17:35:36;96760;;;8.7;95.7
27358;BME280;14831;50.474;7.616;2023-04-01T17:40:37;96770;;;8.6;96.7
27358;BME280;14831;50.474;7.616;2023-04-01T17:45:37;96770;;;8.5;96.6
27358;BME280;14831;50.474;7.616;2023-04-01T17:50:42;96770;;;8.5;96.9
27358;BME280;14831;50.474;7.616;2023-04-01T17:55:44;96790;;;8.4;96.9
27358;BME280;14831;50.474;7.616;2023-04-01T18:00:37;96790;;;8.4;97.0
27358;BME280;14831;50.474;7.616;2023-04-01T18:05:38;96810;;;8.3;95.7
27358;BME280;14831;50.474;7.616;2023-04-01T18:10:37;96810;;;8.2;95.7
27358;BME280;14831;50.474;7.616;2023-04-01T18:15:36;96810;;;8.1;96.0
27358;BME280;14831;50.474;7.616;2023-04-01T18:20:37;96820;;;8.1;95.7
27358;BME280;14831;50.474;7.616;2023-04-01T18:25:35;96820;;;8.0;95.9
27358;BME280;14831;50.474;7.616;2023-04-01T18:30:35;96830;;;8.0;95.1
27358;BME280;14831;50.474;7.616;2023-04-01T18:35:44;96840;;;8.0;95.1
27358;BME280;14831;50.474;7.616;2023-04-01T18:40:35;96850;;;7.9;95.0
27358;BME280;14831;50.474;7.616;2023-04-01T18:45:36;96850;;;7.9;94.5
27358;BME280;14831;50.474;7.616;2023-04-01T18:50:36;96860;;;8.0;94.0
27358;BME280;14831;50.474;7.616;2023-04-01T18:55:37;96870;;;8.0;93.7
27358;BME280;14831;50.474;7.616;2023-04-01T19:00:36;96870;;;8.0;93.8
27358;BME280;14831;50.474;7.616;2023-04-01T19:05:36;96890;;;7.9;93.6
27358;BME280;14831;50.474;7.616;2023-04-01T19:10:37;96900;;;7.9;93.8
27358;BME280;14831;50.474;7.616;2023-04-01T19:15:37;96920;;;7.9;94.2
27358;BME280;14831;50.474;7.616;2023-04-01T19:20:37;96910;;;7.9;94.4
27358;BME280;14831;50.474;7.616;2023-04-01T19:25:35;96910;;;7.8;94.9
27358;BME280;14831;50.474;7.616;2023-04-01T19:30:38;96910;;;7.8;95.2
27358;BME280;14831;50.474;7.616;2023-04-01T19:35:36;96930;;;7.8;95.4
27358;BME280;14831;50.474;7.616;2023-04-01T19:40:37;96920;;;7.8;95.0
27358;BME280;14831;50.474;7.616;2023-04-01T19:45:38;96930;;;7.8;95.2
27358;BME280;14831;50.474;7.616;2023-04-01T19:50:36;96940;;;7.8;94.8
27358;BME280;14831;50.474;7.616;2023-04-01T19:55:36;96940;;;7.8;93.9
27358;BME280;14831;50.474;7.616;2023-04-01T20:00:36;96950;;;7.8;94.0
27358;BME280;14831;50.474;7.616;2023-04-01T20:05:38;96960;;;7.8;94.5
27358;BME280;14831;50.474;7.616;2023-04-01T20:10:37;96960;;;7.8;94.5
27358;BME280;14831;50.474;7.616;2023-04-01T20:15:36;96970;;;7.7;94.4
27358;BME280;14831;50.474;7.616;2023-04-01T20:20:35;96980;;;7.7;94.5
27358;BME280;14831;50.474;7.616;2023-04-01T20:25:38;96970;;;7.7;94.6
27358;BME280;14831;50.474;7.616;2023-04-01T20:30:43;96990;;;7.7;94.9
27358;BME280;14831;50.474;7.616;2023-04-01T20:35:36;96990;;;7.7;95.0
27358;BME280;14831;50.474;7.616;2023-04-01T20:40:35;97000;;;7.7;95.3
27358;BME280;14831;50.474;7.616;2023-04-01T20:45:37;97000;;;7.7;95.4
27358;BME280;14831;50.474;7.616;2023-04-01T20:50:36;96990;;;7.6;95.9
27358;BME280;14831;50.474;7.616;2023-04-01T20:55:48;97000;;;7.6;95.9
27358;BME280;14831;50.474;7.616;2023-04-01T21:00:37;97010;;;7.6;96.1
27358;BME280;14831;50.474;7.616;2023-04-01T21:05:40;97010;;;7.6;96.0
27358;BME280;14831;50.474;7.616;2023-04-01T21:10:37;97010;;;7.5;95.4
27358;BME280;14831;50.474;7.616;2023-04-01T21:15:40;97030;;;7.5;95.2
27358;BME280;14831;50.474;7.616;2023-04-01T21:20:40;97030;;;7.5;95.3
27358;BME280;14831;50.474;7.616;2023-04-01T21:25:39;97030;;;7.5;95.3
27358;BME280;14831;50.474;7.616;2023-04-01T21:30:39;97040;;;7.6;95.8
27358;BME280;14831;50.474;7.616;2023-04-01T21:35:37;97050;;;7.6;95.8
27358;BME280;14831;50.474;7.616;2023-04-01T21:40:41;97050;;;7.6;96.1
27358;BME280;14831;50.474;7.616;2023-04-01T21:45:39;97050;;;7.6;95.7
27358;BME280;14831;50.474;7.616;2023-04-01T21:50:40;97060;;;7.5;95.9
27358;BME280;14831;50.474;7.616;2023-04-01T21:55:40;97070;;;7.5;95.6
27358;BME280;14831;50.474;7.616;2023-04-01T22:00:35;97060;;;7.5;95.5
27358;BME280;14831;50.474;7.616;2023-04-01T22:05:35;97080;;;7.5;95.5
27358;BME280;14831;50.474;7.616;2023-04-01T22:10:37;97080;;;7.5;95.7
27358;BME280;14831;50.474;7.616;2023-04-01T22:15:45;97080;;;7.5;95.9
27358;BME280;14831;50.474;7.616;2023-04-01T22:20:36;97090;;;7.5;95.7
27358;BME280;14831;50.474;7.616;2023-04-01T22:25:37;97100;;;7.5;95.7
27358;BME280;14831;50.474;7.616;2023-04-01T22:30:36;97090;;;7.4;95.6
27358;BME280;14831;50.474;7.616;2023-04-01T22:35:37;97100;;;7.4;95.7
27358;BME280;14831;50.474;7.616;2023-04-01T22:40:38;97100;;;7.4;96.1
27358;BME280;14831;50.474;7.616;2023-04-01T22:45:45;97100;;;7.4;96.2
27358;BME280;14831;50.474;7.616;2023-04-01T22:50:36;97110;;;7.4;96.2
27358;BME280;14831;50.474;7.616;2023-04-01T22:55:35;97110;;;7.3;96.1
27358;BME280;14831;50.474;7.616;2023-04-01T23:00:36;97120;;;7.3;96.4
27358;BME280;14831;50.474;7.616;2023-04-01T23:05:36;97120;;;7.3;96.1
27358;BME280;14831;50.474;7.616;2023-04-01T23:10:39;97120;;;7.2;96.2
27358;BME280;14831;50.474;7.616;2023-04-01T23:15:35;97120;;;7.2;96.4
27358;BME280;14831;50.474;7.616;2023-04-01T23:20:42;97130;;;7.2;96.5
27358;BME280;14831;50.474;7.616;2023-04-01T23:25:37;97140;;;7.1;96.5
27358;BME280;14831;50.474;7.616;2023-04-01T23:30:51;97150;;;7.1;96.6
27358;BME280;14831;50.474;7.616;2023-04-01T23:35:38;97150;;;7.1;96.7
27358;BME280;14831;50.474;7.616;2023-04-01T23:40:35;97150;;;7.0;96.8
27358;BME280;14831;50.474;7.616;2023-04-01T23:45:35;97160;;;7.0;96.9
27358;BME280;14831;50.474;7.616;2023-04-01T23:50:35;97170;;;7.0;96.9
27358;BME280;14831;50.474;7.616;2023-04-01T23:55:35;97170;;;7.0;97.0
